createdAt,value
2023-01-04T00:00:48.697Z,4.50
2023-01-04T00:03:15.461Z,4.80
2023-01-04T00:05:42.005Z,3.92
2023-01-04T00:08:08.488Z,4.00
2023-01-04T00:10:35.008Z,4.43
2023-01-04T00:13:01.540Z,4.57
2023-01-04T00:15:28.013Z,4.05
2023-01-04T00:17:54.596Z,3.85
2023-01-04T00:20:21.104Z,4.15
2023-01-04T00:22:47.551Z,4.63
2023-01-04T00:25:14.037Z,4.60
2023-01-04T00:27:40.492Z,3.38
2023-01-04T00:30:06.985Z,3.83
2023-01-04T00:32:33.434Z,3.88
2023-01-04T00:35:00.372Z,3.88
2023-01-04T00:37:26.814Z,3.78
2023-01-04T00:39:53.776Z,4.13
2023-01-04T00:42:20.277Z,4.32
2023-01-04T00:44:46.711Z,4.55
2023-01-04T00:47:13.655Z,4.32
2023-01-04T00:49:40.630Z,3.53
2023-01-04T00:52:07.130Z,3.28
2023-01-04T00:54:34.109Z,3.38
2023-01-04T00:57:00.580Z,3.50
2023-01-04T00:59:27.514Z,3.78
2023-01-04T01:01:54.007Z,3.67
2023-01-04T01:04:20.708Z,3.53
2023-01-04T01:06:47.252Z,3.47
2023-01-04T01:09:13.703Z,3.03
2023-01-04T01:11:40.655Z,3.28
2023-01-04T01:14:07.100Z,3.30
2023-01-04T01:19:19.978Z,3.33
2023-01-04T01:21:46.449Z,3.45
2023-01-04T01:24:13.414Z,2.85
2023-01-04T01:26:39.845Z,2.63
2023-01-04T01:29:06.351Z,3.22
2023-01-04T01:31:32.874Z,3.40
2023-01-04T01:33:59.430Z,3.67
2023-01-04T01:36:26.001Z,2.58
2023-01-04T01:38:52.470Z,2.67
2023-01-04T01:41:18.935Z,2.45
2023-01-04T01:43:45.371Z,2.85
2023-01-04T01:46:12.415Z,2.60
2023-01-04T01:48:38.915Z,2.33
2023-01-04T01:51:05.414Z,2.58
2023-01-04T01:53:32.352Z,2.45
2023-01-04T01:55:58.790Z,2.42
2023-01-04T01:58:25.261Z,2.22
2023-01-04T02:00:51.743Z,2.55
2023-01-04T02:03:18.348Z,2.47
2023-01-04T02:05:44.911Z,2.40
2023-01-04T02:08:11.893Z,2.22
2023-01-04T02:10:38.397Z,2.33
2023-01-04T02:13:04.857Z,2.25
2023-01-04T02:15:31.545Z,2.20
2023-01-04T02:17:58.073Z,2.13
2023-01-04T02:20:24.570Z,2.20
2023-01-04T02:22:51.045Z,1.63
2023-01-04T02:25:18.018Z,2.45
2023-01-04T02:27:44.615Z,2.00
2023-01-04T02:30:11.079Z,1.90
2023-01-04T02:32:38.057Z,2.30
2023-01-04T02:35:04.560Z,1.95
2023-01-04T02:37:31.033Z,1.92
2023-01-04T02:39:57.994Z,2.15
2023-01-04T02:42:24.440Z,2.10
2023-01-04T02:44:50.900Z,2.30
2023-01-04T02:47:17.371Z,1.90
2023-01-04T02:49:43.805Z,1.90
2023-01-04T02:52:10.297Z,1.92
2023-01-04T02:54:36.747Z,2.25
2023-01-04T02:57:05.953Z,1.70
2023-01-04T02:59:32.715Z,2.00
2023-01-04T03:01:59.268Z,1.58
2023-01-04T03:04:25.852Z,1.60
2023-01-04T03:06:52.334Z,1.73
2023-01-04T03:09:18.823Z,1.80
2023-01-04T03:11:45.269Z,2.15
2023-01-04T03:14:30.774Z,1.75
2023-01-04T03:16:58.105Z,1.55
2023-01-04T03:19:24.613Z,1.48
2023-01-04T03:21:51.046Z,1.40
2023-01-04T03:24:17.510Z,1.75
2023-01-04T03:26:43.967Z,1.70
2023-01-04T03:29:10.405Z,1.63
2023-01-04T03:31:36.920Z,1.70
2023-01-04T03:34:03.413Z,1.40
2023-01-04T03:36:29.876Z,1.70
2023-01-04T03:38:56.322Z,1.23
2023-01-04T03:41:22.762Z,1.60
2023-01-04T03:43:49.200Z,1.40
2023-01-04T03:46:15.709Z,1.40
2023-01-04T03:48:42.284Z,1.13
2023-01-04T03:51:09.266Z,1.45
2023-01-04T03:53:35.754Z,1.10
2023-01-04T03:56:02.196Z,1.23
2023-01-04T03:58:29.147Z,1.30
2023-01-04T04:00:55.677Z,1.15
2023-01-04T04:03:22.182Z,1.13
2023-01-04T04:05:48.740Z,1.60
2023-01-04T04:08:15.238Z,0.93
2023-01-04T04:10:41.702Z,1.20
2023-01-04T04:13:08.213Z,1.30
2023-01-04T04:15:34.721Z,1.20
2023-01-04T04:18:01.172Z,1.20
2023-01-04T04:20:27.628Z,1.20
2023-01-04T04:22:54.097Z,1.10
2023-01-04T04:25:20.551Z,1.20
2023-01-04T04:27:47.031Z,1.40
2023-01-04T04:30:13.552Z,1.10
2023-01-04T04:32:40.015Z,1.23
2023-01-04T04:35:06.499Z,1.05
2023-01-04T04:37:32.985Z,1.00
2023-01-04T04:39:59.469Z,0.95
2023-01-04T04:42:25.957Z,1.35
2023-01-04T04:44:52.970Z,1.10
2023-01-04T04:47:19.971Z,1.30
2023-01-04T04:49:46.459Z,0.90
2023-01-04T04:52:13.441Z,1.17
2023-01-04T04:54:39.897Z,1.10
2023-01-04T04:57:06.354Z,0.90
2023-01-04T04:59:32.828Z,1.20
2023-01-04T05:01:59.974Z,0.95
2023-01-04T05:04:26.628Z,0.75
2023-01-04T05:06:53.129Z,0.82
2023-01-04T05:09:20.149Z,1.00
2023-01-04T05:11:46.639Z,1.17
2023-01-04T05:14:13.147Z,1.10
2023-01-04T05:16:39.666Z,0.98
2023-01-04T05:19:06.596Z,0.93
2023-01-04T05:21:33.096Z,0.90
2023-01-04T05:23:59.553Z,1.10
2023-01-04T05:26:25.991Z,1.00
2023-01-04T05:28:54.117Z,1.17
2023-01-04T05:31:20.916Z,0.90
2023-01-04T05:33:47.361Z,1.20
2023-01-04T05:36:13.842Z,0.70
2023-01-04T05:38:40.321Z,0.77
2023-01-04T05:41:07.255Z,1.00
2023-01-04T05:43:33.742Z,0.93
2023-01-04T05:46:00.317Z,1.05
2023-01-04T05:48:26.838Z,0.95
2023-01-04T05:50:53.325Z,0.73
2023-01-04T05:53:19.772Z,0.70
2023-01-04T05:55:46.276Z,1.00
2023-01-04T05:58:12.796Z,0.88
2023-01-04T06:00:39.293Z,0.98
2023-01-04T06:03:05.931Z,1.00
2023-01-04T06:05:32.528Z,1.05
2023-01-04T06:07:58.992Z,1.00
2023-01-04T06:10:25.438Z,0.65
2023-01-04T06:12:51.858Z,0.70
2023-01-04T06:15:18.843Z,0.77
2023-01-04T06:17:45.305Z,0.90
2023-01-04T06:20:11.805Z,0.85
2023-01-04T06:22:38.768Z,0.70
2023-01-04T06:25:05.211Z,1.17
2023-01-04T06:27:31.662Z,1.17
2023-01-04T06:29:58.179Z,0.80
2023-01-04T06:32:24.685Z,0.68
2023-01-04T06:34:51.151Z,0.65
2023-01-04T06:37:17.635Z,0.80
2023-01-04T06:39:44.088Z,0.70
2023-01-04T06:42:10.537Z,0.80
2023-01-04T06:44:36.986Z,0.65
2023-01-04T06:47:03.926Z,0.80
2023-01-04T06:49:30.880Z,0.65
2023-01-04T06:51:57.948Z,0.80
2023-01-04T06:54:24.433Z,0.80
2023-01-04T06:56:50.873Z,0.80
2023-01-04T06:59:17.367Z,0.80
2023-01-04T07:01:44.575Z,0.88
2023-01-04T07:04:11.193Z,0.70
2023-01-04T07:06:37.708Z,0.52
2023-01-04T07:09:04.706Z,0.90
2023-01-04T07:11:31.194Z,0.67
2023-01-04T07:13:57.719Z,0.52
2023-01-04T07:16:24.287Z,0.80
2023-01-04T07:18:51.011Z,0.70
2023-01-04T07:21:17.500Z,0.50
2023-01-04T07:23:44.004Z,1.15
2023-01-04T07:26:10.535Z,0.88
2023-01-04T07:28:37.027Z,0.73
2023-01-04T07:31:03.607Z,0.70
2023-01-04T07:33:30.129Z,0.70
2023-01-04T07:35:56.571Z,0.73
2023-01-04T07:38:23.013Z,0.43
2023-01-04T07:40:55.873Z,0.50
2023-01-04T07:43:27.959Z,0.73
2023-01-04T07:45:55.157Z,0.47
2023-01-04T07:48:21.754Z,0.93
2023-01-04T07:50:48.241Z,0.70
2023-01-04T07:53:14.740Z,0.77
2023-01-04T07:55:41.241Z,0.68
2023-01-04T07:58:07.694Z,0.60
2023-01-04T08:00:34.632Z,0.80
2023-01-04T08:03:01.197Z,0.70
2023-01-04T08:05:27.888Z,0.68
2023-01-04T08:07:54.824Z,0.75
2023-01-04T08:10:21.372Z,0.60
2023-01-04T08:12:47.823Z,1.00
2023-01-04T08:15:14.254Z,0.52
2023-01-04T08:17:40.842Z,0.80
2023-01-04T08:20:07.321Z,0.40
2023-01-04T08:22:33.783Z,0.50
2023-01-04T08:25:00.377Z,0.60
2023-01-04T08:27:26.860Z,0.47
2023-01-04T08:29:53.827Z,0.52
2023-01-04T08:32:20.323Z,0.60
2023-01-04T08:34:46.818Z,0.60
2023-01-04T08:37:13.294Z,0.57
2023-01-04T08:39:44.009Z,0.50
2023-01-04T08:42:21.910Z,0.40
2023-01-04T08:44:55.665Z,0.70
2023-01-04T08:47:25.544Z,0.80
2023-01-04T08:49:52.087Z,0.35
2023-01-04T08:52:19.103Z,0.50
2023-01-04T08:54:45.557Z,0.50
2023-01-04T08:57:12.040Z,0.50
2023-01-04T08:59:38.986Z,0.82
2023-01-04T09:02:06.349Z,0.70
2023-01-04T09:04:33.600Z,0.65
2023-01-04T09:07:00.190Z,0.67
2023-01-04T09:09:26.681Z,0.77
2023-01-04T09:11:53.183Z,0.90
2023-01-04T09:14:19.632Z,0.82
2023-01-04T09:16:46.191Z,0.90
2023-01-04T09:19:18.086Z,0.77
2023-01-04T09:21:48.113Z,0.82
2023-01-04T09:24:14.576Z,0.93
2023-01-04T09:26:41.069Z,1.08
2023-01-04T09:29:07.616Z,0.75
2023-01-04T09:31:34.081Z,1.08
2023-01-04T09:34:17.778Z,0.75
2023-01-04T09:36:44.443Z,0.85
2023-01-04T09:39:18.737Z,0.90
2023-01-04T09:41:48.779Z,0.95
2023-01-04T09:44:15.306Z,0.90
2023-01-04T09:46:41.886Z,0.63
2023-01-04T09:49:08.915Z,2.08
2023-01-04T09:51:35.361Z,0.82
2023-01-04T09:54:01.802Z,0.70
2023-01-04T09:56:28.320Z,0.80
2023-01-04T09:58:54.770Z,1.08
2023-01-04T10:01:21.850Z,0.80
2023-01-04T10:03:48.392Z,0.63
2023-01-04T10:06:15.395Z,0.57
2023-01-04T10:08:42.339Z,1.02
2023-01-04T10:11:08.892Z,0.90
2023-01-04T10:13:35.862Z,2.38
2023-01-04T10:16:02.365Z,1.02
2023-01-04T10:21:31.556Z,0.70
2023-01-04T10:23:59.699Z,0.65
2023-01-04T10:26:26.287Z,1.20
2023-01-04T10:28:52.763Z,0.85
2023-01-04T10:31:39.878Z,0.85
2023-01-04T10:34:06.677Z,0.98
2023-01-04T10:36:33.181Z,0.80
2023-01-04T10:38:59.669Z,0.90
2023-01-04T10:41:26.157Z,0.82
2023-01-04T10:44:12.079Z,1.05
2023-01-04T10:46:39.109Z,0.80
2023-01-04T10:49:05.592Z,1.05
2023-01-04T10:51:32.099Z,1.05
2023-01-04T10:53:58.549Z,0.70
2023-01-04T10:56:27.314Z,0.70
2023-01-04T10:58:54.122Z,0.77
2023-01-04T11:01:20.747Z,0.90
2023-01-04T11:03:47.368Z,0.73
2023-01-04T11:06:13.878Z,1.10
2023-01-04T11:08:40.370Z,0.68
2023-01-04T11:11:06.869Z,0.80
2023-01-04T11:13:33.377Z,1.13
2023-01-04T11:15:59.951Z,0.95
2023-01-04T11:18:26.504Z,0.95
2023-01-04T11:20:52.951Z,0.70
2023-01-04T11:23:19.494Z,0.70
2023-01-04T11:25:50.342Z,0.85
2023-01-04T11:28:20.185Z,0.50
2023-01-04T11:30:46.631Z,0.85
2023-01-04T11:33:13.111Z,0.82
2023-01-04T11:35:42.634Z,0.90
2023-01-04T11:38:09.543Z,0.60
2023-01-04T11:40:36.486Z,0.75
2023-01-04T11:43:03.433Z,0.60
2023-01-04T11:45:29.989Z,0.82
2023-01-04T11:47:56.484Z,0.93
2023-01-04T11:50:22.956Z,0.70
2023-01-04T11:52:50.114Z,1.00
2023-01-04T11:55:16.617Z,0.77
2023-01-04T11:57:43.084Z,0.68
2023-01-04T12:00:09.594Z,0.70
2023-01-04T12:03:00.296Z,0.90
2023-01-04T12:05:29.449Z,0.95
2023-01-04T12:07:56.727Z,1.13
2023-01-04T12:10:23.251Z,0.90
2023-01-04T12:12:49.758Z,1.10
2023-01-04T12:15:16.260Z,0.73
2023-01-04T12:17:43.503Z,0.90
2023-01-04T12:20:16.443Z,0.75
2023-01-04T12:22:45.116Z,0.65
2023-01-04T12:25:11.588Z,1.38
2023-01-04T12:27:38.075Z,1.10
2023-01-04T12:30:05.073Z,0.95
2023-01-04T12:32:31.528Z,0.90
2023-01-04T12:34:58.155Z,0.90
2023-01-04T12:37:24.593Z,0.80
2023-01-04T12:39:51.540Z,1.00
2023-01-04T12:42:18.528Z,1.77
2023-01-04T12:44:45.495Z,1.52
2023-01-04T12:47:11.958Z,1.33
2023-01-04T12:49:38.391Z,1.48
2023-01-04T12:52:30.177Z,0.95
2023-01-04T12:54:51.262Z,1.33
2023-01-04T12:57:18.249Z,0.80
2023-01-04T12:59:44.708Z,0.73
2023-01-04T13:02:11.230Z,0.80
2023-01-04T13:04:37.801Z,0.80
2023-01-04T13:07:04.736Z,0.70
2023-01-04T13:09:31.307Z,0.93
2023-01-04T13:11:58.307Z,1.25
2023-01-04T13:14:24.796Z,0.73
2023-01-04T13:16:51.317Z,0.90
2023-01-04T13:19:17.805Z,0.65
2023-01-04T13:21:44.295Z,0.80
2023-01-04T13:24:10.802Z,1.00
2023-01-04T13:26:37.340Z,0.80
2023-01-04T13:29:03.841Z,0.73
2023-01-04T13:31:30.349Z,0.80
2023-01-04T13:33:56.820Z,0.80
2023-01-04T13:36:23.829Z,0.80
2023-01-04T13:38:50.293Z,1.07
2023-01-04T13:41:16.801Z,0.98
2023-01-04T13:43:43.295Z,0.90
2023-01-04T13:46:09.787Z,0.93
2023-01-04T13:48:36.270Z,0.80
2023-01-04T13:51:02.722Z,1.13
2023-01-04T13:53:29.183Z,0.93
2023-01-04T13:55:55.628Z,0.77
2023-01-04T13:58:22.081Z,0.65
2023-01-04T14:00:48.538Z,0.90
2023-01-04T14:03:15.150Z,0.90
2023-01-04T14:05:41.665Z,0.70
2023-01-04T14:08:08.619Z,0.80
2023-01-04T14:10:35.078Z,0.77
2023-01-04T14:13:01.586Z,1.10
2023-01-04T14:15:28.077Z,1.00
2023-01-04T14:17:55.062Z,0.90
2023-01-04T14:20:21.529Z,1.20
2023-01-04T14:22:47.970Z,0.98
2023-01-04T14:25:14.458Z,1.15
2023-01-04T14:27:40.993Z,0.90
2023-01-04T14:30:07.949Z,1.05
2023-01-04T14:32:34.433Z,1.08
2023-01-04T14:35:00.940Z,0.88
2023-01-04T14:37:27.416Z,1.20
2023-01-04T14:39:54.400Z,0.80
2023-01-04T14:42:22.724Z,1.10
2023-01-04T14:44:49.409Z,1.27
2023-01-04T14:47:16.489Z,0.90
2023-01-04T14:49:42.977Z,1.10
2023-01-04T14:52:09.468Z,0.90
2023-01-04T14:54:35.957Z,1.00
2023-01-04T14:57:02.473Z,0.90
2023-01-04T14:59:28.930Z,1.23
2023-01-04T15:01:55.546Z,1.40
2023-01-04T15:04:22.237Z,1.20
2023-01-04T15:06:48.879Z,0.80
2023-01-04T15:09:15.371Z,0.98
2023-01-04T15:11:41.813Z,1.02
2023-01-04T15:14:08.293Z,1.15
2023-01-04T15:16:34.841Z,1.13
2023-01-04T15:19:01.807Z,1.13
2023-01-04T15:21:28.237Z,0.98
2023-01-04T15:23:54.670Z,1.20
2023-01-04T15:26:21.114Z,1.08
2023-01-04T15:28:48.052Z,1.13
2023-01-04T15:31:14.510Z,1.23
2023-01-04T15:33:40.987Z,1.48
2023-01-04T15:36:07.517Z,1.13
2023-01-04T15:38:34.480Z,1.17
2023-01-04T15:41:00.952Z,1.30
2023-01-04T15:43:32.557Z,0.90
2023-01-04T15:46:02.818Z,1.10
2023-01-04T15:48:29.298Z,1.23
2023-01-04T15:50:55.787Z,1.13
2023-01-04T15:53:22.308Z,1.20
2023-01-04T15:55:48.750Z,1.30
2023-01-04T15:58:15.213Z,1.30
2023-01-04T16:00:41.683Z,1.27
2023-01-04T16:03:08.235Z,0.95
2023-01-04T16:05:34.813Z,1.10
2023-01-04T16:08:01.773Z,1.23
2023-01-04T16:10:28.226Z,0.90
2023-01-04T16:12:57.055Z,0.80
2023-01-04T16:15:24.228Z,1.30
2023-01-04T16:17:50.677Z,1.20
2023-01-04T16:20:17.163Z,1.23
2023-01-04T16:22:44.158Z,1.17
2023-01-04T16:25:11.949Z,1.50
2023-01-04T16:27:38.813Z,1.30
2023-01-04T16:30:05.285Z,1.65
2023-01-04T16:32:31.738Z,1.00
2023-01-04T16:34:58.728Z,0.82
2023-01-04T16:37:25.231Z,1.00
2023-01-04T16:40:08.651Z,1.10
2023-01-04T16:42:36.068Z,0.93
2023-01-04T16:45:02.604Z,1.00
2023-01-04T16:47:29.111Z,1.00
2023-01-04T16:49:58.324Z,1.05
2023-01-04T16:52:27.987Z,1.00
2023-01-04T16:57:45.860Z,1.10
2023-01-04T17:14:28.746Z,0.63
2023-01-04T17:16:55.208Z,0.73
2023-01-04T17:19:22.579Z,0.88
2023-01-04T17:21:49.058Z,1.25
2023-01-04T17:24:15.533Z,1.27
2023-01-04T17:26:42.556Z,1.00
2023-01-04T17:29:08.985Z,0.90
2023-01-04T17:31:35.504Z,0.98
2023-01-04T17:34:02.590Z,1.10
2023-01-04T17:36:29.105Z,1.23
2023-01-04T17:38:55.596Z,0.88
2023-01-04T17:41:22.050Z,0.70
2023-01-04T17:43:48.526Z,0.60
2023-01-04T17:46:20.738Z,0.80
2023-01-04T17:48:55.469Z,1.02
2023-01-04T17:51:35.654Z,0.70
2023-01-04T17:54:02.096Z,1.13
2023-01-04T17:56:28.568Z,1.10
2023-01-04T17:58:55.055Z,1.13
2023-01-04T18:01:21.528Z,0.95
2023-01-04T18:03:48.003Z,1.30
2023-01-04T18:06:25.499Z,0.93
2023-01-04T18:08:52.483Z,1.30
2023-01-04T18:11:18.988Z,1.33
2023-01-04T18:13:45.568Z,1.15
2023-01-04T18:16:23.990Z,1.02
2023-01-04T18:18:51.109Z,1.15
2023-01-04T18:21:28.093Z,1.50
2023-01-04T18:24:34.285Z,1.00
2023-01-04T18:27:10.897Z,0.98
2023-01-04T18:29:28.003Z,0.90
2023-01-04T18:31:54.552Z,1.02
2023-01-04T18:34:21.064Z,0.82
2023-01-04T18:36:47.548Z,1.00
2023-01-04T18:39:14.030Z,0.70
2023-01-04T18:41:40.534Z,0.80
2023-01-04T18:44:31.478Z,1.17
2023-01-04T18:46:53.474Z,1.05
2023-01-04T18:49:19.974Z,0.80
2023-01-04T18:51:46.464Z,1.05
2023-01-04T18:54:16.529Z,0.93
2023-01-04T18:56:43.046Z,1.00
2023-01-04T18:59:10.054Z,1.10
2023-01-04T19:01:36.605Z,1.27
2023-01-04T19:04:03.123Z,1.10
2023-01-04T19:06:29.621Z,1.30
2023-01-04T19:09:00.228Z,0.98
2023-01-04T19:11:29.492Z,0.88
2023-01-04T19:13:55.978Z,0.90
2023-01-04T19:16:22.535Z,1.20
2023-01-04T19:18:49.049Z,0.90
2023-01-04T19:21:15.534Z,0.90
2023-01-04T19:23:42.040Z,1.00
2023-01-04T19:26:09.020Z,0.80
2023-01-04T19:28:35.967Z,1.25
2023-01-04T19:31:02.996Z,1.38
2023-01-04T19:33:29.459Z,1.27
2023-01-04T19:35:55.901Z,1.08
2023-01-04T19:38:22.400Z,0.90
2023-01-04T19:40:49.335Z,0.98
2023-01-04T19:43:15.792Z,0.80
2023-01-04T19:45:42.398Z,1.38
2023-01-04T19:48:08.913Z,0.82
2023-01-04T19:50:35.358Z,0.85
2023-01-04T19:53:01.832Z,0.80
2023-01-04T19:55:28.279Z,0.60
2023-01-04T19:57:54.725Z,0.98
2023-01-04T20:00:21.240Z,0.90
2023-01-04T20:02:47.884Z,1.02
2023-01-04T20:05:14.504Z,1.08
2023-01-04T20:07:41.477Z,0.98
2023-01-04T20:10:13.969Z,0.98
2023-01-04T20:12:40.928Z,0.90
2023-01-04T20:15:07.349Z,1.00
2023-01-04T20:17:33.837Z,1.13
2023-01-04T20:20:00.335Z,1.23
2023-01-04T20:22:26.802Z,0.98
2023-01-04T20:24:53.293Z,0.95
2023-01-04T20:27:19.768Z,1.00
2023-01-04T20:29:46.291Z,0.85
2023-01-04T20:32:12.917Z,0.90
2023-01-04T20:34:39.860Z,1.17
2023-01-04T20:37:06.344Z,1.20
2023-01-04T20:39:33.383Z,0.80
2023-01-04T20:41:59.900Z,0.67
2023-01-04T20:44:26.412Z,0.50
2023-01-04T20:46:52.966Z,0.90
2023-01-04T20:49:19.460Z,0.63
2023-01-04T20:51:45.930Z,0.98
2023-01-04T20:54:12.417Z,0.85
2023-01-04T20:56:38.884Z,0.57
2023-01-04T20:59:05.365Z,0.60
2023-01-04T21:01:31.960Z,0.70
2023-01-04T21:03:58.520Z,1.25
2023-01-04T21:06:25.056Z,1.00
2023-01-04T21:08:51.544Z,0.70
2023-01-04T21:11:18.513Z,0.77
2023-01-04T21:13:44.985Z,1.07
2023-01-04T21:16:11.561Z,1.00
2023-01-04T21:18:38.120Z,0.88
2023-01-04T21:21:04.642Z,0.90
2023-01-04T21:23:31.146Z,0.60
2023-01-04T21:25:57.609Z,0.82
2023-01-04T21:28:24.072Z,1.00
2023-01-04T21:30:50.555Z,0.60
2023-01-04T21:33:17.107Z,0.70
2023-01-04T21:35:43.581Z,1.02
2023-01-04T21:38:10.084Z,1.10
2023-01-04T21:40:37.110Z,1.17
2023-01-04T21:43:03.613Z,1.23
2023-01-04T21:45:30.624Z,1.10
2023-01-04T21:47:57.074Z,1.20
2023-01-04T21:50:23.559Z,1.05
2023-01-04T21:52:50.124Z,1.05
2023-01-04T21:55:16.585Z,1.10
2023-01-04T21:57:43.020Z,0.95
2023-01-04T22:00:09.575Z,0.63
2023-01-04T22:02:36.197Z,0.93
2023-01-04T22:05:02.841Z,1.10
2023-01-04T22:07:29.320Z,0.80
2023-01-04T22:09:57.837Z,0.82
2023-01-04T22:12:24.468Z,0.80
2023-01-04T22:14:50.971Z,1.00
2023-01-04T22:17:17.436Z,1.23
2023-01-04T22:19:43.934Z,0.60
2023-01-04T22:22:10.437Z,0.52
2023-01-04T22:24:38.212Z,1.15
2023-01-04T22:29:31.471Z,0.70
2023-01-04T22:31:58.451Z,0.75
2023-01-04T22:34:25.298Z,0.77
2023-01-04T22:36:52.266Z,0.90
2023-01-04T22:39:18.725Z,0.82
2023-01-04T22:41:45.692Z,0.77
2023-01-04T22:44:12.619Z,0.77
2023-01-04T22:46:39.167Z,0.90
2023-01-04T22:49:05.728Z,0.90
2023-01-04T22:51:32.233Z,0.93
2023-01-04T22:53:58.768Z,0.57
2023-01-04T22:56:25.379Z,0.68
2023-01-04T22:58:54.153Z,0.68
2023-01-04T23:01:21.445Z,0.73
2023-01-04T23:03:48.083Z,0.98
2023-01-04T23:06:14.649Z,0.90
2023-01-04T23:08:41.608Z,0.60
2023-01-04T23:11:08.095Z,0.90
2023-01-04T23:13:34.594Z,0.93
2023-01-04T23:16:01.164Z,0.80
2023-01-04T23:18:28.162Z,1.20
2023-01-04T23:20:54.601Z,0.82
2023-01-04T23:23:21.058Z,0.70
2023-01-04T23:25:48.028Z,1.15
2023-01-04T23:28:14.497Z,0.60
2023-01-04T23:30:40.984Z,0.55
2023-01-04T23:33:07.989Z,0.50
2023-01-04T23:35:34.468Z,0.50
2023-01-04T23:38:01.018Z,0.40
2023-01-04T23:40:27.538Z,0.43
2023-01-04T23:42:53.996Z,0.50
2023-01-04T23:45:20.983Z,0.55
2023-01-04T23:47:47.432Z,0.40
2023-01-04T23:50:13.912Z,0.52
2023-01-04T23:52:40.422Z,0.60
2023-01-04T23:55:07.435Z,0.50
2023-01-04T23:57:33.939Z,0.30
